createdAt,value
2019-03-12T05:02:10.547Z,9.77
2019-03-12T05:04:45.443Z,5.20
2019-03-12T05:07:20.527Z,9.07
2019-03-12T05:09:55.722Z,6.23
2019-03-12T05:12:31.002Z,8.03
2019-03-12T05:14:57.499Z,7.80
2019-03-12T06:01:27.621Z,7.97
2019-03-12T06:04:03.639Z,9.67
2019-03-12T06:06:39.245Z,10.57
2019-03-12T06:09:14.029Z,9.63
2019-03-12T06:11:44.229Z,6.30
2019-03-12T06:14:08.641Z,8.63
2019-03-12T07:02:46.038Z,11.03
2019-03-12T07:05:34.063Z,13.87
2019-03-12T07:08:15.177Z,11.23
2019-03-12T07:11:06.343Z,7.10
2019-03-12T07:13:58.976Z,9.27
2019-03-12T08:00:43.303Z,7.40
2019-03-12T08:06:29.872Z,7.30
2019-03-12T08:09:24.190Z,8.00
2019-03-12T08:12:07.152Z,5.60
2019-03-12T08:14:47.725Z,4.90
2019-03-12T09:01:47.280Z,9.70
2019-03-12T09:04:40.067Z,6.83
2019-03-12T11:02:04.047Z,4.40
2019-03-12T11:04:26.628Z,3.20
2019-03-12T11:06:49.042Z,4.97
2019-03-12T11:10:00.520Z,3.60
2019-03-12T11:12:42.472Z,3.60
2019-03-12T12:01:54.263Z,3.67
2019-03-12T12:04:16.739Z,2.93
2019-03-12T12:06:51.993Z,3.58
2019-03-12T12:09:27.028Z,3.10
2019-03-12T12:12:02.006Z,2.30
2019-03-12T12:14:37.227Z,4.75
2019-03-12T13:02:28.791Z,2.08
2019-03-12T13:04:51.234Z,1.72
2019-03-12T13:07:13.794Z,2.60
2019-03-12T13:09:36.257Z,2.17
2019-03-12T13:11:58.787Z,2.00
2019-03-12T13:14:21.246Z,4.12
2019-03-12T14:01:58.091Z,3.02
2019-03-12T14:04:20.544Z,2.33
2019-03-12T14:06:43.010Z,3.23
2019-03-12T14:09:05.550Z,1.73
2019-03-12T14:11:49.339Z,3.23
2019-03-12T14:14:24.270Z,2.90
2019-03-12T14:25:27.094Z,2.57
2019-03-12T14:27:49.618Z,2.67
2019-03-12T14:30:12.194Z,4.20
2019-03-12T14:32:34.761Z,2.70
2019-03-12T14:34:57.225Z,2.47
2019-03-12T14:37:19.806Z,3.53
2019-03-12T14:39:42.247Z,2.37
2019-03-12T14:42:04.791Z,3.33
2019-03-12T14:44:27.242Z,3.70
2019-03-12T14:46:49.682Z,1.70
2019-03-12T14:49:12.140Z,4.67
2019-03-12T14:51:58.240Z,2.93
2019-03-12T14:54:20.786Z,2.50
2019-03-12T15:02:18.510Z,2.97
2019-03-12T15:04:41.087Z,2.63
2019-03-12T15:07:03.916Z,4.57
2019-03-12T15:09:26.478Z,2.30
2019-03-12T15:11:49.054Z,3.67
2019-03-12T15:14:11.522Z,3.33
2019-03-12T16:03:29.476Z,4.47
2019-03-12T16:05:51.950Z,3.80
2019-03-12T16:08:14.411Z,3.33
2019-03-12T16:10:36.859Z,4.80
2019-03-12T16:12:59.319Z,4.30
2019-03-12T17:02:48.940Z,6.10
2019-03-12T17:05:26.313Z,5.17
2019-03-12T18:02:19.991Z,4.27
2019-03-12T18:04:43.838Z,3.50
2019-03-12T18:07:06.468Z,3.80
2019-03-12T18:09:30.172Z,5.37
2019-03-12T18:11:53.924Z,3.70
2019-03-12T18:14:16.686Z,4.70
2019-03-12T18:46:17.366Z,2.83
2019-03-12T18:48:40.535Z,4.13
2019-03-12T18:51:03.305Z,6.33
2019-03-12T18:53:39.294Z,6.53
2019-03-12T18:56:14.718Z,7.63
2019-03-12T18:58:50.155Z,5.67
2019-03-12T19:01:25.469Z,5.63
2019-03-12T19:04:00.288Z,5.30
2019-03-12T19:06:35.364Z,4.73
2019-03-12T19:09:10.640Z,6.00
2019-03-12T19:11:48.526Z,8.93
2019-03-12T19:14:23.778Z,5.77
2019-03-12T20:01:15.198Z,3.83
2019-03-12T20:03:38.984Z,3.13
2019-03-12T20:06:02.039Z,3.30
2019-03-12T20:08:26.205Z,4.73
2019-03-12T20:11:10.271Z,4.67
2019-03-12T20:14:24.458Z,5.53
2019-03-12T21:01:09.940Z,2.90
2019-03-12T21:04:16.138Z,4.10
2019-03-12T21:07:37.582Z,4.27
2019-03-12T21:10:36.653Z,2.70
2019-03-12T21:13:43.075Z,4.07
2019-03-12T21:19:31.965Z,3.50
2019-03-12T21:22:31.166Z,4.40
2019-03-12T21:25:19.955Z,3.77
2019-03-12T21:28:24.584Z,2.53
2019-03-12T21:30:51.518Z,3.83
2019-03-12T21:33:15.818Z,3.00
2019-03-12T21:35:38.579Z,3.63
2019-03-12T21:38:08.793Z,4.33
2019-03-12T21:40:32.341Z,3.93
2019-03-12T21:42:55.112Z,3.33
2019-03-12T21:45:17.656Z,6.67
2019-03-12T21:47:40.262Z,4.77
2019-03-12T21:50:02.862Z,4.57
2019-03-12T21:52:25.400Z,4.23
2019-03-12T21:54:47.863Z,3.93
2019-03-12T21:57:10.317Z,4.20
2019-03-12T21:59:32.970Z,3.83
2019-03-12T22:01:55.427Z,2.63
2019-03-12T22:04:17.954Z,3.37
2019-03-12T22:06:40.502Z,2.30
2019-03-12T22:09:05.275Z,3.27
2019-03-12T22:11:29.843Z,2.40
2019-03-12T22:13:53.022Z,3.23
2019-03-12T22:16:15.662Z,4.23
2019-03-12T22:18:38.148Z,2.47
2019-03-12T22:21:00.583Z,2.17
2019-03-12T22:23:36.095Z,3.43
2019-03-12T22:25:58.543Z,2.87
2019-03-12T22:28:21.203Z,2.17
2019-03-12T22:30:44.135Z,3.97
2019-03-12T22:33:06.585Z,2.00
2019-03-12T22:35:29.110Z,2.60
2019-03-12T22:37:51.555Z,2.33
2019-03-12T22:40:13.995Z,2.70
2019-03-12T22:42:36.440Z,3.47
2019-03-12T22:44:58.891Z,3.47
2019-03-12T22:47:21.347Z,2.73
2019-03-12T22:49:43.875Z,4.63
2019-03-12T22:52:06.334Z,3.07
2019-03-12T22:54:29.175Z,3.30
2019-03-12T22:56:51.851Z,2.97
2019-03-12T22:59:16.214Z,3.53
2019-03-12T23:01:57.030Z,2.17
2019-03-12T23:04:37.812Z,2.77
2019-03-12T23:07:18.784Z,4.07
2019-03-12T23:09:43.114Z,3.50
2019-03-12T23:12:07.946Z,1.77
2019-03-12T23:14:31.222Z,2.50
2019-03-12T23:16:53.863Z,3.07
2019-03-12T23:19:16.841Z,2.13
2019-03-12T23:21:39.467Z,3.23
2019-03-12T23:24:02.040Z,3.10
2019-03-12T23:26:24.694Z,2.57
2019-03-12T23:28:47.440Z,2.63
2019-03-12T23:31:10.306Z,3.27
2019-03-12T23:33:32.850Z,3.30
2019-03-12T23:35:55.280Z,3.67
2019-03-12T23:38:17.878Z,2.40
2019-03-12T23:40:40.355Z,3.07
2019-03-12T23:43:02.808Z,3.20
2019-03-12T23:45:25.427Z,3.03
2019-03-12T23:47:50.418Z,4.30
2019-03-12T23:50:12.644Z,5.73
2019-03-12T23:52:35.070Z,3.80
2019-03-12T23:54:57.514Z,3.57
2019-03-12T23:57:20.063Z,3.17
2019-03-12T23:59:42.499Z,3.20
